Archival Weather

Yakutsk

Yakutsk, Russia (UEEE)

Report from: Monday, February 6, 2023 11:00 PM JST
Current time: Wednesday, May 29, 2024 5:38 PM JST

Current weather – Weather history – Daily summaries
Weather forecast

Present weatherFog
Temperature-45.0°C (-49.0°F)
Wind chill-54.9°C (-66.8°F)
Dew point-49.0°C (-56.2°F)
Winds 3.9 kts (2 m/s, 4.5 mph) West (260°)
Visibility820.2 ft. (250 m)
Altimeter30.30 in.Hg (1026 mB)
Precip. events QF 1:41 AM
Relative humidity64 %
Density altitude-8,632 ft. (-2,631 m)
Remarks No significant changes expected in the next two hours
Flight conditions Low Instrument Meteorological Conditions
Raw dataUEEE 061400Z 26002MPS 0250 0200SW R23L/0700D FG NSC M45/M49 Q1026 R23L/490150 NOSIG RMK QFE761
An error has occurred. This application may no longer respond until reloaded. Reload 🗙